Menu Sign In Contact FAQ
Banner
Welcome to our forums

Guernsey EGJB summer 2016

Several of us are going…

Administrator
Shoreham EGKA, United Kingdom

Just back…


Last Edited by chrisparker at 20 Jun 17:37
Spending too long online
EGTF Fairoaks, EGLL Heathrow, United Kingdom

Wx doesn’t look good for tomorrow, at the UK end
EGKK 241116Z 2412/2518 22009KT 9999 SCT030 PROB30 2504/2507 8000 TEMPO 2510/2518 7000 SHRA PROB40 TEMPO 2512/2518 3000 +SHRA TSRA BKN014 BKN025CB

Administrator
Shoreham EGKA, United Kingdom

The wx looks ok for tomorrow. Anyone interested?

Administrator
Shoreham EGKA, United Kingdom

I am going today.

The wx looks great – essential for taking a gurl out for the day

EGKA: no results found
EGKK 090520Z 29007KT CAVOK 11/08 Q1025
EGHI 090520Z VRB03KT CAVOK 09/07 Q1026
EGHH 090520Z 02002KT CAVOK 06/06 Q1026
EGJB 090520Z 34005KT 9999 FEW015 13/11 Q1027

EGKA: no results found
EGKK 090458Z 0906/1012 30007KT 9999 FEW040
EGHI 090530Z 0906/0915 32007KT 9999 FEW045
EGHH 081955Z 0821/0906 31009KT 9999 FEW040
EGJB 090459Z 0906/0915 34010KT 9999 FEW016

Administrator
Shoreham EGKA, United Kingdom

Somebody offered me an EASA 1 for that prop, 200 quid, cash.

Administrator
Shoreham EGKA, United Kingdom

Looks Nice Peter. :-) hope you had a good lunch.

Alex
Shoreham (EGKA) White Waltham (EGLM)

Guernsey was a really good experience, starting with the super nice and helpful airport

There is some number of Rockwell Commanders there. I wonder who looks after them?

Total cost was about £35 (1400kg).

Top food – rather French in quality

Their number plate format is fun but you can’t do C4VOK etc

The very posh banking square

Some beaches to explore next time

Alderney from FL100 (crappy phone pic)

On the way there I got a Eurocontrol CTOT (slot)

but by the time we got into the car it was reduced and later cancelled. I am impressed that a TB20 at 140kt and FL100 stretches ATC capacity to its limit

Administrator
Shoreham EGKA, United Kingdom

I’ve seen a few 2-reg Rockwells around the place…

Looks like Guernsey has mandatory handling – how expensive was it?

Andreas IOM

alioth wrote:

Looks like Guernsey has mandatory handling – how expensive was it?

As Peter says around £35

For a PA46 @ 1.95T it is £25.16 handling and £10.00 landing and thats before discount if you are an AOPA member.

If every airport worked like Guernsey and ASG aviation would be a real pleasure.

For handling just call ASG it could not be more simple.

JET A1 50p AVGAS about £1.00 Litre, before AOPA discount. (no VAT either !)

11 Posts
Sign in to add your message

Back to Top